sensor_id;sensor_type;location;lat;lon;timestamp;temperature;humidity
9881;DHT22;4979;51.014;6.678;2023-07-16T00:02:22;19.90;99.90
9881;DHT22;4979;51.014;6.678;2023-07-16T00:04:48;19.80;99.90
9881;DHT22;4979;51.014;6.678;2023-07-16T00:07:13;19.80;99.90
9881;DHT22;4979;51.014;6.678;2023-07-16T00:09:39;19.80;99.90
9881;DHT22;4979;51.014;6.678;2023-07-16T00:12:05;19.70;99.90
9881;DHT22;4979;51.014;6.678;2023-07-16T00:14:30;19.70;99.90
9881;DHT22;4979;51.014;6.678;2023-07-16T00:16:57;19.70;99.90
9881;DHT22;4979;51.014;6.678;2023-07-16T00:19:22;19.60;99.90
9881;DHT22;4979;51.014;6.678;2023-07-16T00:21:48;19.60;99.90
9881;DHT22;4979;51.014;6.678;2023-07-16T00:24:14;19.60;99.90
9881;DHT22;4979;51.014;6.678;2023-07-16T00:26:39;19.60;99.90
9881;DHT22;4979;51.014;6.678;2023-07-16T00:29:05;19.50;99.90
9881;DHT22;4979;51.014;6.678;2023-07-16T00:31:30;19.50;99.90
9881;DHT22;4979;51.014;6.678;2023-07-16T00:33:56;19.40;99.90
9881;DHT22;4979;51.014;6.678;2023-07-16T00:36:21;19.40;99.90
9881;DHT22;4979;51.014;6.678;2023-07-16T00:38:47;19.40;99.90
9881;DHT22;4979;51.014;6.678;2023-07-16T00:41:13;19.40;99.90
9881;DHT22;4979;51.014;6.678;2023-07-16T00:43:39;19.40;99.90
9881;DHT22;4979;51.014;6.678;2023-07-16T00:46:05;19.30;99.90
9881;DHT22;4979;51.014;6.678;2023-07-16T00:48:31;19.30;99.90
9881;DHT22;4979;51.014;6.678;2023-07-16T00:50:57;19.30;99.90
9881;DHT22;4979;51.014;6.678;2023-07-16T00:53:23;19.20;99.90
9881;DHT22;4979;51.014;6.678;2023-07-16T00:55:49;19.20;99.90
9881;DHT22;4979;51.014;6.678;2023-07-16T00:58:14;19.20;99.90
9881;DHT22;4979;51.014;6.678;2023-07-16T01:00:41;19.10;99.90
9881;DHT22;4979;51.014;6.678;2023-07-16T01:03:09;19.10;99.90
9881;DHT22;4979;51.014;6.678;2023-07-16T01:05:43;19.10;99.90
9881;DHT22;4979;51.014;6.678;2023-07-16T01:08:11;19.20;99.90
9881;DHT22;4979;51.014;6.678;2023-07-16T01:10:39;19.00;99.90
9881;DHT22;4979;51.014;6.678;2023-07-16T01:13:05;19.00;99.90
9881;DHT22;4979;51.014;6.678;2023-07-16T01:15:30;19.40;99.90
9881;DHT22;4979;51.014;6.678;2023-07-16T01:17:56;19.00;99.90
9881;DHT22;4979;51.014;6.678;2023-07-16T01:20:22;19.00;99.90
9881;DHT22;4979;51.014;6.678;2023-07-16T01:25:56;19.00;99.90
9881;DHT22;4979;51.014;6.678;2023-07-16T01:31:17;18.90;99.90
9881;DHT22;4979;51.014;6.678;2023-07-16T01:33:44;18.90;99.90
9881;DHT22;4979;51.014;6.678;2023-07-16T01:36:11;18.80;99.90
9881;DHT22;4979;51.014;6.678;2023-07-16T01:38:37;18.90;99.90
9881;DHT22;4979;51.014;6.678;2023-07-16T01:41:02;18.80;99.90
9881;DHT22;4979;51.014;6.678;2023-07-16T01:43:28;18.80;99.90
9881;DHT22;4979;51.014;6.678;2023-07-16T01:45:54;18.80;99.90
9881;DHT22;4979;51.014;6.678;2023-07-16T01:48:36;18.70;99.90
9881;DHT22;4979;51.014;6.678;2023-07-16T01:51:03;18.70;99.90
9881;DHT22;4979;51.014;6.678;2023-07-16T01:53:29;18.60;99.90
9881;DHT22;4979;51.014;6.678;2023-07-16T01:55:54;18.60;99.90
9881;DHT22;4979;51.014;6.678;2023-07-16T01:58:20;18.60;99.90
9881;DHT22;4979;51.014;6.678;2023-07-16T02:00:45;18.70;99.90
9881;DHT22;4979;51.014;6.678;2023-07-16T02:03:11;18.70;99.90
9881;DHT22;4979;51.014;6.678;2023-07-16T02:05:37;18.60;99.90
9881;DHT22;4979;51.014;6.678;2023-07-16T02:08:03;18.60;99.90
9881;DHT22;4979;51.014;6.678;2023-07-16T02:10:28;18.60;99.90
9881;DHT22;4979;51.014;6.678;2023-07-16T02:12:54;18.60;99.90
9881;DHT22;4979;51.014;6.678;2023-07-16T02:15:19;18.60;99.90
9881;DHT22;4979;51.014;6.678;2023-07-16T02:17:45;18.60;99.90
9881;DHT22;4979;51.014;6.678;2023-07-16T02:20:11;18.60;99.90
9881;DHT22;4979;51.014;6.678;2023-07-16T02:22:37;18.60;99.90
9881;DHT22;4979;51.014;6.678;2023-07-16T02:25:03;18.50;99.90
9881;DHT22;4979;51.014;6.678;2023-07-16T02:27:29;18.50;99.90
9881;DHT22;4979;51.014;6.678;2023-07-16T02:29:55;18.50;99.90
9881;DHT22;4979;51.014;6.678;2023-07-16T02:32:21;18.50;99.90
9881;DHT22;4979;51.014;6.678;2023-07-16T02:34:46;18.50;99.90
9881;DHT22;4979;51.014;6.678;2023-07-16T02:37:12;18.40;99.90
9881;DHT22;4979;51.014;6.678;2023-07-16T02:39:38;18.50;99.90
9881;DHT22;4979;51.014;6.678;2023-07-16T02:42:04;18.50;99.90
9881;DHT22;4979;51.014;6.678;2023-07-16T02:44:30;18.50;99.90
9881;DHT22;4979;51.014;6.678;2023-07-16T02:46:55;18.40;99.90
9881;DHT22;4979;51.014;6.678;2023-07-16T02:49:21;18.40;99.90
9881;DHT22;4979;51.014;6.678;2023-07-16T02:51:47;18.40;99.90
9881;DHT22;4979;51.014;6.678;2023-07-16T02:54:12;18.40;99.90
9881;DHT22;4979;51.014;6.678;2023-07-16T02:56:38;18.30;99.90
9881;DHT22;4979;51.014;6.678;2023-07-16T02:59:03;18.30;99.90
9881;DHT22;4979;51.014;6.678;2023-07-16T03:01:29;18.30;99.90
9881;DHT22;4979;51.014;6.678;2023-07-16T03:03:54;18.20;99.90
9881;DHT22;4979;51.014;6.678;2023-07-16T03:06:20;18.20;99.90
9881;DHT22;4979;51.014;6.678;2023-07-16T03:08:46;18.20;99.90
9881;DHT22;4979;51.014;6.678;2023-07-16T03:11:12;18.20;99.90
9881;DHT22;4979;51.014;6.678;2023-07-16T03:13:37;18.10;99.90
9881;DHT22;4979;51.014;6.678;2023-07-16T03:16:03;18.10;99.90
9881;DHT22;4979;51.014;6.678;2023-07-16T03:18:29;18.10;99.90
9881;DHT22;4979;51.014;6.678;2023-07-16T03:20:56;18.10;99.90
9881;DHT22;4979;51.014;6.678;2023-07-16T03:23:22;18.10;99.90
9881;DHT22;4979;51.014;6.678;2023-07-16T03:25:47;18.00;99.90
9881;DHT22;4979;51.014;6.678;2023-07-16T03:28:13;18.00;99.90
9881;DHT22;4979;51.014;6.678;2023-07-16T03:30:39;18.00;99.90
9881;DHT22;4979;51.014;6.678;2023-07-16T03:33:04;18.00;99.90
9881;DHT22;4979;51.014;6.678;2023-07-16T03:35:30;18.00;99.90
9881;DHT22;4979;51.014;6.678;2023-07-16T03:37:56;17.90;99.90
9881;DHT22;4979;51.014;6.678;2023-07-16T03:40:26;17.90;99.90
9881;DHT22;4979;51.014;6.678;2023-07-16T03:42:52;17.90;99.90
9881;DHT22;4979;51.014;6.678;2023-07-16T03:45:18;17.90;99.90
9881;DHT22;4979;51.014;6.678;2023-07-16T03:47:44;17.90;99.90
9881;DHT22;4979;51.014;6.678;2023-07-16T03:50:10;18.00;99.90
9881;DHT22;4979;51.014;6.678;2023-07-16T03:52:35;17.90;99.90
9881;DHT22;4979;51.014;6.678;2023-07-16T03:55:01;17.90;99.90
9881;DHT22;4979;51.014;6.678;2023-07-16T03:57:30;17.90;99.90
9881;DHT22;4979;51.014;6.678;2023-07-16T03:59:56;17.90;99.90
9881;DHT22;4979;51.014;6.678;2023-07-16T04:02:21;17.90;99.90
9881;DHT22;4979;51.014;6.678;2023-07-16T04:04:47;18.00;99.90
9881;DHT22;4979;51.014;6.678;2023-07-16T04:07:13;18.00;99.90
9881;DHT22;4979;51.014;6.678;2023-07-16T04:09:39;18.00;99.90
9881;DHT22;4979;51.014;6.678;2023-07-16T04:12:05;17.90;99.90
9881;DHT22;4979;51.014;6.678;2023-07-16T04:14:32;18.00;99.90
9881;DHT22;4979;51.014;6.678;2023-07-16T04:16:57;18.00;99.90
9881;DHT22;4979;51.014;6.678;2023-07-16T04:19:23;18.00;99.90
9881;DHT22;4979;51.014;6.678;2023-07-16T04:21:48;18.00;99.90
9881;DHT22;4979;51.014;6.678;2023-07-16T04:24:14;18.00;99.90
9881;DHT22;4979;51.014;6.678;2023-07-16T04:26:39;18.00;99.90
9881;DHT22;4979;51.014;6.678;2023-07-16T04:29:05;18.00;99.90
9881;DHT22;4979;51.014;6.678;2023-07-16T04:31:31;18.10;99.90
9881;DHT22;4979;51.014;6.678;2023-07-16T04:33:56;18.20;99.90
9881;DHT22;4979;51.014;6.678;2023-07-16T04:36:22;18.20;99.90
9881;DHT22;4979;51.014;6.678;2023-07-16T04:38:47;18.30;99.90
9881;DHT22;4979;51.014;6.678;2023-07-16T04:41:13;18.30;99.90
9881;DHT22;4979;51.014;6.678;2023-07-16T04:43:39;18.40;99.90
9881;DHT22;4979;51.014;6.678;2023-07-16T04:46:05;18.50;99.90
9881;DHT22;4979;51.014;6.678;2023-07-16T04:48:30;18.50;99.90
9881;DHT22;4979;51.014;6.678;2023-07-16T04:50:56;18.50;99.90
9881;DHT22;4979;51.014;6.678;2023-07-16T04:53:22;18.60;99.90
9881;DHT22;4979;51.014;6.678;2023-07-16T04:55:48;18.60;99.90
9881;DHT22;4979;51.014;6.678;2023-07-16T04:58:14;18.70;99.90
9881;DHT22;4979;51.014;6.678;2023-07-16T05:00:39;18.70;99.90
9881;DHT22;4979;51.014;6.678;2023-07-16T05:03:05;18.80;99.90
9881;DHT22;4979;51.014;6.678;2023-07-16T05:05:31;18.80;99.90
9881;DHT22;4979;51.014;6.678;2023-07-16T05:07:56;18.80;99.90
9881;DHT22;4979;51.014;6.678;2023-07-16T05:10:22;18.90;99.90
9881;DHT22;4979;51.014;6.678;2023-07-16T05:12:47;18.90;99.90
9881;DHT22;4979;51.014;6.678;2023-07-16T05:15:13;18.90;99.90
9881;DHT22;4979;51.014;6.678;2023-07-16T05:17:38;18.80;99.90
9881;DHT22;4979;51.014;6.678;2023-07-16T05:20:05;18.90;99.90
9881;DHT22;4979;51.014;6.678;2023-07-16T05:22:32;18.90;99.90
9881;DHT22;4979;51.014;6.678;2023-07-16T05:24:57;19.00;99.90
9881;DHT22;4979;51.014;6.678;2023-07-16T05:27:23;18.90;99.90
9881;DHT22;4979;51.014;6.678;2023-07-16T05:29:48;18.90;99.90
9881;DHT22;4979;51.014;6.678;2023-07-16T05:32:14;18.90;99.90
9881;DHT22;4979;51.014;6.678;2023-07-16T05:34:40;19.00;99.90
9881;DHT22;4979;51.014;6.678;2023-07-16T05:37:05;19.00;99.90
9881;DHT22;4979;51.014;6.678;2023-07-16T05:39:31;19.10;99.90
9881;DHT22;4979;51.014;6.678;2023-07-16T05:41:57;19.10;99.90
9881;DHT22;4979;51.014;6.678;2023-07-16T05:44:22;19.20;99.90
9881;DHT22;4979;51.014;6.678;2023-07-16T05:46:48;19.30;99.90
9881;DHT22;4979;51.014;6.678;2023-07-16T05:49:14;19.50;99.90
9881;DHT22;4979;51.014;6.678;2023-07-16T05:51:39;19.40;99.90
9881;DHT22;4979;51.014;6.678;2023-07-16T05:54:05;19.40;99.90
9881;DHT22;4979;51.014;6.678;2023-07-16T05:56:31;19.50;99.90
9881;DHT22;4979;51.014;6.678;2023-07-16T05:58:57;19.40;99.90
9881;DHT22;4979;51.014;6.678;2023-07-16T06:01:23;19.40;99.90
9881;DHT22;4979;51.014;6.678;2023-07-16T06:03:48;19.40;99.90
9881;DHT22;4979;51.014;6.678;2023-07-16T06:06:14;19.40;99.90
9881;DHT22;4979;51.014;6.678;2023-07-16T06:08:39;19.50;99.90
9881;DHT22;4979;51.014;6.678;2023-07-16T06:11:05;19.40;99.90
9881;DHT22;4979;51.014;6.678;2023-07-16T06:13:31;19.50;99.90
9881;DHT22;4979;51.014;6.678;2023-07-16T06:15:56;19.30;99.90
9881;DHT22;4979;51.014;6.678;2023-07-16T06:18:22;19.30;99.90
9881;DHT22;4979;51.014;6.678;2023-07-16T06:20:48;19.40;99.90
9881;DHT22;4979;51.014;6.678;2023-07-16T06:23:13;19.40;99.90
9881;DHT22;4979;51.014;6.678;2023-07-16T06:25:41;19.50;99.90
9881;DHT22;4979;51.014;6.678;2023-07-16T06:28:10;19.50;99.90
9881;DHT22;4979;51.014;6.678;2023-07-16T06:30:36;19.60;99.90
9881;DHT22;4979;51.014;6.678;2023-07-16T06:33:02;19.60;99.90
9881;DHT22;4979;51.014;6.678;2023-07-16T06:35:27;19.70;99.90
9881;DHT22;4979;51.014;6.678;2023-07-16T06:37:53;19.70;99.90
9881;DHT22;4979;51.014;6.678;2023-07-16T06:40:19;19.60;99.90
9881;DHT22;4979;51.014;6.678;2023-07-16T06:42:44;19.60;99.90
9881;DHT22;4979;51.014;6.678;2023-07-16T06:45:10;19.60;99.90
9881;DHT22;4979;51.014;6.678;2023-07-16T06:47:35;20.00;99.90
9881;DHT22;4979;51.014;6.678;2023-07-16T06:50:01;19.90;99.90
9881;DHT22;4979;51.014;6.678;2023-07-16T06:52:28;20.00;99.90
9881;DHT22;4979;51.014;6.678;2023-07-16T06:54:54;19.90;99.90
9881;DHT22;4979;51.014;6.678;2023-07-16T06:57:21;19.60;99.90
9881;DHT22;4979;51.014;6.678;2023-07-16T06:59:46;19.80;99.90
9881;DHT22;4979;51.014;6.678;2023-07-16T07:02:12;19.70;99.90
9881;DHT22;4979;51.014;6.678;2023-07-16T07:04:37;19.80;99.90
9881;DHT22;4979;51.014;6.678;2023-07-16T07:07:03;19.90;99.90
9881;DHT22;4979;51.014;6.678;2023-07-16T07:09:29;20.00;99.90
9881;DHT22;4979;51.014;6.678;2023-07-16T07:11:55;19.70;99.90
9881;DHT22;4979;51.014;6.678;2023-07-16T07:14:20;19.80;99.90
9881;DHT22;4979;51.014;6.678;2023-07-16T07:16:46;19.90;99.90
9881;DHT22;4979;51.014;6.678;2023-07-16T07:19:11;19.90;99.90
9881;DHT22;4979;51.014;6.678;2023-07-16T07:21:37;20.10;99.90
9881;DHT22;4979;51.014;6.678;2023-07-16T07:24:03;20.00;99.90
9881;DHT22;4979;51.014;6.678;2023-07-16T07:26:28;20.00;99.90
9881;DHT22;4979;51.014;6.678;2023-07-16T07:28:54;20.40;99.90
9881;DHT22;4979;51.014;6.678;2023-07-16T07:31:19;20.40;99.90
9881;DHT22;4979;51.014;6.678;2023-07-16T07:33:45;20.50;99.90
9881;DHT22;4979;51.014;6.678;2023-07-16T07:36:10;20.50;99.90
9881;DHT22;4979;51.014;6.678;2023-07-16T07:38:36;20.60;99.90
9881;DHT22;4979;51.014;6.678;2023-07-16T07:41:01;20.50;99.90
9881;DHT22;4979;51.014;6.678;2023-07-16T07:43:27;20.60;99.90
9881;DHT22;4979;51.014;6.678;2023-07-16T07:45:53;20.60;99.90
9881;DHT22;4979;51.014;6.678;2023-07-16T07:48:18;20.50;99.90
9881;DHT22;4979;51.014;6.678;2023-07-16T07:50:46;20.60;99.90
9881;DHT22;4979;51.014;6.678;2023-07-16T07:53:11;20.80;99.90
9881;DHT22;4979;51.014;6.678;2023-07-16T07:55:37;21.00;99.90
9881;DHT22;4979;51.014;6.678;2023-07-16T07:58:03;21.20;99.90
9881;DHT22;4979;51.014;6.678;2023-07-16T08:00:28;21.40;99.90
9881;DHT22;4979;51.014;6.678;2023-07-16T08:02:54;21.30;99.90
9881;DHT22;4979;51.014;6.678;2023-07-16T08:05:21;21.10;99.90
9881;DHT22;4979;51.014;6.678;2023-07-16T08:07:47;21.40;99.90
9881;DHT22;4979;51.014;6.678;2023-07-16T08:10:13;21.60;99.90
9881;DHT22;4979;51.014;6.678;2023-07-16T08:12:38;21.60;99.90
9881;DHT22;4979;51.014;6.678;2023-07-16T08:15:04;21.60;99.90
9881;DHT22;4979;51.014;6.678;2023-07-16T08:17:31;21.40;99.90
9881;DHT22;4979;51.014;6.678;2023-07-16T08:19:56;21.30;99.90
9881;DHT22;4979;51.014;6.678;2023-07-16T08:22:22;21.70;99.90
9881;DHT22;4979;51.014;6.678;2023-07-16T08:24:50;21.80;99.90
9881;DHT22;4979;51.014;6.678;2023-07-16T08:27:16;21.90;99.90
9881;DHT22;4979;51.014;6.678;2023-07-16T08:29:41;21.70;99.90
9881;DHT22;4979;51.014;6.678;2023-07-16T08:32:07;21.60;99.90
9881;DHT22;4979;51.014;6.678;2023-07-16T08:34:33;21.70;99.90
9881;DHT22;4979;51.014;6.678;2023-07-16T08:36:59;21.50;99.90
9881;DHT22;4979;51.014;6.678;2023-07-16T08:39:24;21.70;99.90
9881;DHT22;4979;51.014;6.678;2023-07-16T08:41:50;21.70;99.90
9881;DHT22;4979;51.014;6.678;2023-07-16T08:44:15;22.00;99.90
9881;DHT22;4979;51.014;6.678;2023-07-16T08:46:41;22.20;99.90
9881;DHT22;4979;51.014;6.678;2023-07-16T08:49:07;22.20;99.90
9881;DHT22;4979;51.014;6.678;2023-07-16T08:51:34;22.00;99.90
9881;DHT22;4979;51.014;6.678;2023-07-16T08:54:01;22.20;99.90
9881;DHT22;4979;51.014;6.678;2023-07-16T08:56:26;22.60;99.90
9881;DHT22;4979;51.014;6.678;2023-07-16T08:58:54;22.50;99.90
9881;DHT22;4979;51.014;6.678;2023-07-16T09:01:23;22.40;99.90
9881;DHT22;4979;51.014;6.678;2023-07-16T09:03:49;22.40;99.90
9881;DHT22;4979;51.014;6.678;2023-07-16T09:06:15;22.50;99.90
9881;DHT22;4979;51.014;6.678;2023-07-16T09:08:41;22.60;99.90
9881;DHT22;4979;51.014;6.678;2023-07-16T09:11:11;22.80;99.90
9881;DHT22;4979;51.014;6.678;2023-07-16T09:13:37;22.60;99.90
9881;DHT22;4979;51.014;6.678;2023-07-16T09:16:03;22.80;99.90
9881;DHT22;4979;51.014;6.678;2023-07-16T09:18:28;23.00;99.90
9881;DHT22;4979;51.014;6.678;2023-07-16T09:20:58;22.90;99.90
9881;DHT22;4979;51.014;6.678;2023-07-16T09:23:27;23.00;99.90
9881;DHT22;4979;51.014;6.678;2023-07-16T09:25:54;23.30;99.90
9881;DHT22;4979;51.014;6.678;2023-07-16T09:28:20;22.70;99.90
9881;DHT22;4979;51.014;6.678;2023-07-16T09:30:46;22.70;99.90
9881;DHT22;4979;51.014;6.678;2023-07-16T09:33:16;22.40;99.90
9881;DHT22;4979;51.014;6.678;2023-07-16T09:35:42;22.70;99.90
9881;DHT22;4979;51.014;6.678;2023-07-16T09:38:08;22.40;99.90
9881;DHT22;4979;51.014;6.678;2023-07-16T09:40:38;22.80;99.90
9881;DHT22;4979;51.014;6.678;2023-07-16T09:43:06;23.00;99.90
9881;DHT22;4979;51.014;6.678;2023-07-16T09:45:31;23.00;99.90
9881;DHT22;4979;51.014;6.678;2023-07-16T09:47:57;23.00;99.90
9881;DHT22;4979;51.014;6.678;2023-07-16T09:50:28;23.10;99.90
9881;DHT22;4979;51.014;6.678;2023-07-16T09:52:56;22.90;99.90
9881;DHT22;4979;51.014;6.678;2023-07-16T09:55:23;23.50;99.90
9881;DHT22;4979;51.014;6.678;2023-07-16T09:57:51;23.70;99.90
9881;DHT22;4979;51.014;6.678;2023-07-16T10:00:18;23.70;99.90
9881;DHT22;4979;51.014;6.678;2023-07-16T10:02:46;23.60;99.90
9881;DHT22;4979;51.014;6.678;2023-07-16T10:05:18;23.60;99.90
9881;DHT22;4979;51.014;6.678;2023-07-16T10:07:52;23.80;99.90
9881;DHT22;4979;51.014;6.678;2023-07-16T10:10:18;23.60;99.90
9881;DHT22;4979;51.014;6.678;2023-07-16T10:12:55;23.50;99.90
9881;DHT22;4979;51.014;6.678;2023-07-16T10:15:25;24.10;99.90
9881;DHT22;4979;51.014;6.678;2023-07-16T10:17:52;24.20;99.90
9881;DHT22;4979;51.014;6.678;2023-07-16T10:20:36;23.80;99.90
9881;DHT22;4979;51.014;6.678;2023-07-16T10:23:14;23.60;99.90
9881;DHT22;4979;51.014;6.678;2023-07-16T10:25:40;23.30;99.90
9881;DHT22;4979;51.014;6.678;2023-07-16T10:28:06;23.50;99.90
9881;DHT22;4979;51.014;6.678;2023-07-16T10:30:33;23.80;99.90
9881;DHT22;4979;51.014;6.678;2023-07-16T10:33:03;24.30;99.90
9881;DHT22;4979;51.014;6.678;2023-07-16T10:35:28;24.70;99.90
9881;DHT22;4979;51.014;6.678;2023-07-16T10:37:54;25.00;99.90
9881;DHT22;4979;51.014;6.678;2023-07-16T10:40:20;25.20;98.60
9881;DHT22;4979;51.014;6.678;2023-07-16T10:42:45;24.90;97.00
9881;DHT22;4979;51.014;6.678;2023-07-16T10:45:13;24.40;96.90
9881;DHT22;4979;51.014;6.678;2023-07-16T10:47:53;24.60;98.30
9881;DHT22;4979;51.014;6.678;2023-07-16T10:50:19;24.40;97.90
9881;DHT22;4979;51.014;6.678;2023-07-16T10:52:53;24.70;98.50
9881;DHT22;4979;51.014;6.678;2023-07-16T10:55:22;24.50;98.70
9881;DHT22;4979;51.014;6.678;2023-07-16T10:57:49;24.50;98.40
9881;DHT22;4979;51.014;6.678;2023-07-16T11:00:16;24.50;98.20
9881;DHT22;4979;51.014;6.678;2023-07-16T11:02:42;24.70;97.20
9881;DHT22;4979;51.014;6.678;2023-07-16T11:05:15;24.30;96.80
9881;DHT22;4979;51.014;6.678;2023-07-16T11:07:48;24.50;97.00
9881;DHT22;4979;51.014;6.678;2023-07-16T11:10:17;24.40;96.80
9881;DHT22;4979;51.014;6.678;2023-07-16T11:12:43;24.70;97.60
9881;DHT22;4979;51.014;6.678;2023-07-16T11:15:09;24.80;97.60
9881;DHT22;4979;51.014;6.678;2023-07-16T11:17:37;25.20;96.90
9881;DHT22;4979;51.014;6.678;2023-07-16T11:20:13;25.20;95.60
9881;DHT22;4979;51.014;6.678;2023-07-16T11:22:39;24.70;95.70
9881;DHT22;4979;51.014;6.678;2023-07-16T11:25:15;24.50;95.60
9881;DHT22;4979;51.014;6.678;2023-07-16T11:27:41;24.50;96.80
9881;DHT22;4979;51.014;6.678;2023-07-16T11:30:07;25.20;97.70
9881;DHT22;4979;51.014;6.678;2023-07-16T11:32:35;25.20;96.50
9881;DHT22;4979;51.014;6.678;2023-07-16T11:35:03;25.00;96.90
9881;DHT22;4979;51.014;6.678;2023-07-16T11:37:30;24.70;96.00
9881;DHT22;4979;51.014;6.678;2023-07-16T11:40:01;24.80;96.70
9881;DHT22;4979;51.014;6.678;2023-07-16T11:42:30;25.00;96.10
9881;DHT22;4979;51.014;6.678;2023-07-16T11:44:56;25.40;95.40
9881;DHT22;4979;51.014;6.678;2023-07-16T11:47:22;25.20;95.50
9881;DHT22;4979;51.014;6.678;2023-07-16T11:49:48;24.80;95.10
9881;DHT22;4979;51.014;6.678;2023-07-16T11:52:18;24.90;95.50
9881;DHT22;4979;51.014;6.678;2023-07-16T11:54:43;25.20;95.50
9881;DHT22;4979;51.014;6.678;2023-07-16T11:57:09;24.90;94.70
9881;DHT22;4979;51.014;6.678;2023-07-16T11:59:34;24.70;94.80
9881;DHT22;4979;51.014;6.678;2023-07-16T12:02:00;24.80;95.80
9881;DHT22;4979;51.014;6.678;2023-07-16T12:04:25;25.20;94.60
9881;DHT22;4979;51.014;6.678;2023-07-16T12:06:51;25.50;93.90
9881;DHT22;4979;51.014;6.678;2023-07-16T12:09:17;25.00;94.30
9881;DHT22;4979;51.014;6.678;2023-07-16T12:11:42;25.00;94.70
9881;DHT22;4979;51.014;6.678;2023-07-16T12:14:08;25.40;95.30
9881;DHT22;4979;51.014;6.678;2023-07-16T12:16:34;25.30;95.60
9881;DHT22;4979;51.014;6.678;2023-07-16T12:18:59;25.60;95.00
9881;DHT22;4979;51.014;6.678;2023-07-16T12:21:25;25.50;94.20
9881;DHT22;4979;51.014;6.678;2023-07-16T12:23:51;25.20;93.90
9881;DHT22;4979;51.014;6.678;2023-07-16T12:26:16;25.00;94.10
9881;DHT22;4979;51.014;6.678;2023-07-16T12:28:42;25.60;94.40
9881;DHT22;4979;51.014;6.678;2023-07-16T12:31:07;25.80;92.30
9881;DHT22;4979;51.014;6.678;2023-07-16T12:33:33;25.10;92.50
9881;DHT22;4979;51.014;6.678;2023-07-16T12:35:58;25.10;93.50
9881;DHT22;4979;51.014;6.678;2023-07-16T12:38:24;25.50;93.50
9881;DHT22;4979;51.014;6.678;2023-07-16T12:40:49;25.70;93.70
9881;DHT22;4979;51.014;6.678;2023-07-16T12:43:15;25.70;93.70
9881;DHT22;4979;51.014;6.678;2023-07-16T12:45:40;25.20;93.50
9881;DHT22;4979;51.014;6.678;2023-07-16T12:48:06;25.10;93.30
9881;DHT22;4979;51.014;6.678;2023-07-16T12:50:31;25.00;93.10
9881;DHT22;4979;51.014;6.678;2023-07-16T12:52:57;25.00;93.40
9881;DHT22;4979;51.014;6.678;2023-07-16T12:55:23;24.80;92.80
9881;DHT22;4979;51.014;6.678;2023-07-16T12:57:49;24.90;93.10
9881;DHT22;4979;51.014;6.678;2023-07-16T13:00:14;24.70;92.90
9881;DHT22;4979;51.014;6.678;2023-07-16T13:02:40;24.70;92.90
9881;DHT22;4979;51.014;6.678;2023-07-16T13:05:06;24.80;92.90
9881;DHT22;4979;51.014;6.678;2023-07-16T13:07:31;24.90;93.30
9881;DHT22;4979;51.014;6.678;2023-07-16T13:09:57;24.90;92.20
9881;DHT22;4979;51.014;6.678;2023-07-16T13:12:23;24.90;92.60
9881;DHT22;4979;51.014;6.678;2023-07-16T13:14:48;25.20;92.90
9881;DHT22;4979;51.014;6.678;2023-07-16T13:17:14;25.40;92.30
9881;DHT22;4979;51.014;6.678;2023-07-16T13:19:41;25.30;92.40
9881;DHT22;4979;51.014;6.678;2023-07-16T13:22:07;25.30;91.40
9881;DHT22;4979;51.014;6.678;2023-07-16T13:24:32;25.20;92.00
9881;DHT22;4979;51.014;6.678;2023-07-16T13:26:58;25.20;91.20
9881;DHT22;4979;51.014;6.678;2023-07-16T13:29:24;25.10;92.00
9881;DHT22;4979;51.014;6.678;2023-07-16T13:31:49;25.20;91.30
9881;DHT22;4979;51.014;6.678;2023-07-16T13:34:15;25.30;91.70
9881;DHT22;4979;51.014;6.678;2023-07-16T13:36:40;25.50;91.60
9881;DHT22;4979;51.014;6.678;2023-07-16T13:39:06;25.40;91.10
9881;DHT22;4979;51.014;6.678;2023-07-16T13:41:32;25.40;91.60
9881;DHT22;4979;51.014;6.678;2023-07-16T13:43:57;25.20;91.40
9881;DHT22;4979;51.014;6.678;2023-07-16T13:46:23;25.20;91.50
9881;DHT22;4979;51.014;6.678;2023-07-16T13:48:49;25.10;91.10
9881;DHT22;4979;51.014;6.678;2023-07-16T13:51:15;24.90;91.30
9881;DHT22;4979;51.014;6.678;2023-07-16T13:53:40;25.00;91.50
9881;DHT22;4979;51.014;6.678;2023-07-16T13:56:06;25.50;92.00
9881;DHT22;4979;51.014;6.678;2023-07-16T13:58:33;25.70;91.80
9881;DHT22;4979;51.014;6.678;2023-07-16T14:00:59;26.00;91.50
9881;DHT22;4979;51.014;6.678;2023-07-16T14:03:24;25.90;91.20
9881;DHT22;4979;51.014;6.678;2023-07-16T14:05:50;25.60;91.00
9881;DHT22;4979;51.014;6.678;2023-07-16T14:08:15;25.60;91.60
9881;DHT22;4979;51.014;6.678;2023-07-16T14:10:41;25.50;91.10
9881;DHT22;4979;51.014;6.678;2023-07-16T14:13:06;25.00;91.30
9881;DHT22;4979;51.014;6.678;2023-07-16T14:15:32;25.00;91.60
9881;DHT22;4979;51.014;6.678;2023-07-16T14:17:57;25.10;92.10
9881;DHT22;4979;51.014;6.678;2023-07-16T14:20:23;25.50;92.60
9881;DHT22;4979;51.014;6.678;2023-07-16T14:22:49;25.50;91.60
9881;DHT22;4979;51.014;6.678;2023-07-16T14:25:14;25.60;92.00
9881;DHT22;4979;51.014;6.678;2023-07-16T14:27:40;25.60;91.80
9881;DHT22;4979;51.014;6.678;2023-07-16T14:30:06;25.40;91.50
9881;DHT22;4979;51.014;6.678;2023-07-16T14:32:33;25.40;91.70
9881;DHT22;4979;51.014;6.678;2023-07-16T14:34:59;25.50;91.90
9881;DHT22;4979;51.014;6.678;2023-07-16T14:37:25;25.40;91.20
9881;DHT22;4979;51.014;6.678;2023-07-16T14:39:51;25.30;91.70
9881;DHT22;4979;51.014;6.678;2023-07-16T14:42:16;25.20;91.90
9881;DHT22;4979;51.014;6.678;2023-07-16T14:44:42;25.20;91.80
9881;DHT22;4979;51.014;6.678;2023-07-16T14:47:07;25.20;92.00
9881;DHT22;4979;51.014;6.678;2023-07-16T14:49:33;25.20;92.20
9881;DHT22;4979;51.014;6.678;2023-07-16T14:51:58;25.40;92.10
9881;DHT22;4979;51.014;6.678;2023-07-16T14:54:24;25.30;92.00
9881;DHT22;4979;51.014;6.678;2023-07-16T14:56:49;25.10;91.40
9881;DHT22;4979;51.014;6.678;2023-07-16T14:59:15;25.00;91.90
9881;DHT22;4979;51.014;6.678;2023-07-16T15:01:40;24.90;92.10
9881;DHT22;4979;51.014;6.678;2023-07-16T15:04:06;24.80;92.00
9881;DHT22;4979;51.014;6.678;2023-07-16T15:06:32;25.30;92.40
9881;DHT22;4979;51.014;6.678;2023-07-16T15:08:57;25.60;92.40
9881;DHT22;4979;51.014;6.678;2023-07-16T15:11:23;25.60;92.40
9881;DHT22;4979;51.014;6.678;2023-07-16T15:13:48;25.50;91.50
9881;DHT22;4979;51.014;6.678;2023-07-16T15:16:14;25.40;90.80
9881;DHT22;4979;51.014;6.678;2023-07-16T15:18:40;25.60;91.40
9881;DHT22;4979;51.014;6.678;2023-07-16T15:21:05;25.70;91.40
9881;DHT22;4979;51.014;6.678;2023-07-16T15:23:31;25.90;91.10
9881;DHT22;4979;51.014;6.678;2023-07-16T15:26:02;25.60;90.80
9881;DHT22;4979;51.014;6.678;2023-07-16T15:28:28;25.50;91.10
9881;DHT22;4979;51.014;6.678;2023-07-16T15:30:59;25.20;91.40
9881;DHT22;4979;51.014;6.678;2023-07-16T15:33:25;25.20;92.10
9881;DHT22;4979;51.014;6.678;2023-07-16T15:35:50;25.20;92.20
9881;DHT22;4979;51.014;6.678;2023-07-16T15:38:16;25.20;92.00
9881;DHT22;4979;51.014;6.678;2023-07-16T15:40:41;25.20;92.00
9881;DHT22;4979;51.014;6.678;2023-07-16T15:43:07;25.30;91.70
9881;DHT22;4979;51.014;6.678;2023-07-16T15:45:32;25.70;91.60
9881;DHT22;4979;51.014;6.678;2023-07-16T15:47:58;25.60;91.10
9881;DHT22;4979;51.014;6.678;2023-07-16T15:50:25;25.80;91.10
9881;DHT22;4979;51.014;6.678;2023-07-16T15:52:52;25.90;91.10
9881;DHT22;4979;51.014;6.678;2023-07-16T15:55:17;26.00;90.70
9881;DHT22;4979;51.014;6.678;2023-07-16T15:57:43;26.00;91.10
9881;DHT22;4979;51.014;6.678;2023-07-16T16:00:09;25.90;90.60
9881;DHT22;4979;51.014;6.678;2023-07-16T16:02:41;25.90;90.60